Visemar One — ICNA — position and weather

sailwx.info

Track history (hours):
 
Tides and Currents Weather Stations Pressure Air Temp Water Temp Dewpoint Dewpoint Depression Visibility Wind Speed Wind Dir Waves Ship Positions

Visemar One

Last reported at 2017-Dec-11 12:17 UTC. Time now 2017-Dec-11 19:19 UTC.
Position N 39°23' E 002°11'.

Length 186 m; draft 6 m.

Type: Ship. MMSI: 247281400.

Date/timePositionNaut miles runAvg speedWind from/ knotsBaromVisibWave heightAir tempDewpointWater temp
2017-Dec-11 12:17N 39°23' E 002°11'516.9
2017-Dec-11 12:00N 39°24' E 002°17'816.4
2017-Dec-11 11:30N 39°25' E 002°28'715.1
2017-Dec-11 11:00N 39°29' E 002°36'4 8.1
2017-Dec-11 10:30N 39°33' E 002°38'0 0.0
2017-Dec-11 10:00N 39°33' E 002°38'0 0.0
2017-Dec-11 09:30N 39°33' E 002°38'0 0.0
2017-Dec-11 09:00N 39°33' E 002°38'0 0.0
2017-Dec-11 08:30N 39°33' E 002°38'0 0.0
2017-Dec-11 08:00N 39°33' E 002°38'0 0.0
2017-Dec-11 07:30N 39°33' E 002°38'0 0.0
2017-Dec-11 07:00N 39°33' E 002°38'0 0.0
2017-Dec-11 06:30N 39°33' E 002°38'0 0.0
2017-Dec-11 06:00N 39°33' E 002°38'0 0.0
2017-Dec-11 05:30N 39°33' E 002°38'0 0.1
2017-Dec-11 05:00N 39°33' E 002°38'1 1.2
2017-Dec-11 04:30N 39°33' E 002°39'918.8
2017-Dec-11 04:00N 39°25' E 002°31'18 0.4
2017-Dec-09 12:09N 39°25' E 002°07'620.6
2017-Dec-09 11:52N 39°25' E 002°15'820.9
2017-Dec-09 11:30N 39°25' E 002°25'1019.1
2017-Dec-09 11:00N 39°29' E 002°36'4 8.1
2017-Dec-09 10:30N 39°33' E 002°38'0 0.0
2017-Dec-09 10:00N 39°33' E 002°38'0 0.0
2017-Dec-09 09:30N 39°33' E 002°38'0 0.0
2017-Dec-09 09:00N 39°33' E 002°38'0 0.0
2017-Dec-09 08:30N 39°33' E 002°38'0 0.0
2017-Dec-09 07:57N 39°33' E 002°38'0 0.0
2017-Dec-09 07:30N 39°33' E 002°38'0 0.0
2017-Dec-09 07:00N 39°33' E 002°38'0 0.0
2017-Dec-09 06:30N 39°33' E 002°38'0 0.0
2017-Dec-09 06:00N 39°33' E 002°38'0 0.0
2017-Dec-09 05:30N 39°33' E 002°38'0 0.0
2017-Dec-09 05:00N 39°33' E 002°38'0 0.6
2017-Dec-09 04:30N 39°33' E 002°38'816.1
2017-Dec-09 04:00N 39°26' E 002°33'1019.6
2017-Dec-09 03:30N 39°25' E 002°20'3 0.1
2017-Dec-07 11:48N 39°25' E 002°17'621.1
2017-Dec-07 11:30N 39°25' E 002°25'1019.4
2017-Dec-07 11:00N 39°29' E 002°36'4 8.4
2017-Dec-07 10:30N 39°33' E 002°38'0 0.0
2017-Dec-07 10:00N 39°33' E 002°38'0 0.0
2017-Dec-07 09:30N 39°33' E 002°38'0 0.0
2017-Dec-07 09:00N 39°33' E 002°38'0 0.0
2017-Dec-07 08:30N 39°33' E 002°38'0 0.0
2017-Dec-07 08:00N 39°33' E 002°38'0 0.0
2017-Dec-07 07:30N 39°33' E 002°38'0 0.0
2017-Dec-07 07:00N 39°33' E 002°38'0 0.0
2017-Dec-07 06:30N 39°33' E 002°38'0 0.0
2017-Dec-07 06:00N 39°33' E 002°38'0 0.0
2017-Dec-07 05:30N 39°33' E 002°38'0 0.0
2017-Dec-07 05:00N 39°33' E 002°38'1 1.3
2017-Dec-07 04:30N 39°33' E 002°39'1019.6
2017-Dec-07 04:00N 39°25' E 002°30'  
2017-Dec-04 10:23N 39°33' E 002°38'0 0.0
2017-Dec-04 09:59N 39°33' E 002°38'0 0.0
2017-Dec-04 09:29N 39°33' E 002°38'0 0.0
2017-Dec-04 08:59N 39°33' E 002°38'0 0.0
2017-Dec-04 08:17N 39°33' E 002°38'0 0.0
2017-Dec-04 07:59N 39°33' E 002°38'0 0.0
2017-Dec-04 07:29N 39°33' E 002°38'0 0.0
2017-Dec-04 06:59N 39°33' E 002°38'0 0.0
2017-Dec-04 06:26N 39°33' E 002°38'0 0.0
2017-Dec-04 05:59N 39°33' E 002°38'0 0.0
2017-Dec-04 05:29N 39°33' E 002°38'0 0.0
2017-Dec-04 05:00N 39°33' E 002°38'1 2.4
2017-Dec-04 04:30N 39°32' E 002°38'1019.5
2017-Dec-04 04:00N 39°25' E 002°29'13 0.3
2017-Dec-02 12:02N 39°25' E 002°12'119.3
2017-Dec-02 11:59N 39°25' E 002°13'919.5
2017-Dec-02 11:30N 39°25' E 002°25'1019.2
2017-Dec-02 11:00N 39°29' E 002°37'4 8.0
2017-Dec-02 10:28N 39°33' E 002°38'0 0.0
2017-Dec-02 09:58N 39°33' E 002°38'0 0.0
2017-Dec-02 09:28N 39°33' E 002°38'0 0.0
2017-Dec-02 08:58N 39°33' E 002°38'0 0.0
2017-Dec-02 08:28N 39°33' E 002°38'0 0.0
2017-Dec-02 07:58N 39°33' E 002°38'0 0.0
2017-Dec-02 07:28N 39°33' E 002°38'0 0.0
2017-Dec-02 06:58N 39°33' E 002°38'0 0.0
2017-Dec-02 06:28N 39°33' E 002°38'0 0.0
2017-Dec-02 05:55N 39°33' E 002°38'0 0.0
2017-Dec-02 05:28N 39°33' E 002°38'0 0.4
2017-Dec-02 05:00N 39°33' E 002°38'713.1
2017-Dec-02 04:30N 39°27' E 002°34'1019.6
2017-Dec-02 04:00N 39°25' E 002°21'  
Track history (hours):
 
Tides and Currents Weather Stations Pressure Air Temp Water Temp Dewpoint Dewpoint Depression Visibility Wind Speed Wind Dir Waves Ship Positions

Visemar One

Last reported at 2017-Dec-11 12:17 UTC. Time now 2017-Dec-11 19:19 UTC.
Position N 39°23' E 002°11'.

Length 186 m; draft 6 m.

Type: Ship. MMSI: 247281400.

Date/timePositionNaut miles runAvg speedWind from/ knotsBaromVisibWave heightAir tempDewpointWater temp
2017-Dec-11 12:17N 39°23' E 002°11'516.9
2017-Dec-11 12:00N 39°24' E 002°17'816.4
2017-Dec-11 11:30N 39°25' E 002°28'715.1
2017-Dec-11 11:00N 39°29' E 002°36'4 8.1
2017-Dec-11 10:30N 39°33' E 002°38'0 0.0
2017-Dec-11 10:00N 39°33' E 002°38'0 0.0
2017-Dec-11 09:30N 39°33' E 002°38'0 0.0
2017-Dec-11 09:00N 39°33' E 002°38'0 0.0
2017-Dec-11 08:30N 39°33' E 002°38'0 0.0
2017-Dec-11 08:00N 39°33' E 002°38'0 0.0
2017-Dec-11 07:30N 39°33' E 002°38'0 0.0
2017-Dec-11 07:00N 39°33' E 002°38'0 0.0
2017-Dec-11 06:30N 39°33' E 002°38'0 0.0
2017-Dec-11 06:00N 39°33' E 002°38'0 0.0
2017-Dec-11 05:30N 39°33' E 002°38'0 0.1
2017-Dec-11 05:00N 39°33' E 002°38'1 1.2
2017-Dec-11 04:30N 39°33' E 002°39'918.8
2017-Dec-11 04:00N 39°25' E 002°31'18 0.4
2017-Dec-09 12:09N 39°25' E 002°07'620.6
2017-Dec-09 11:52N 39°25' E 002°15'820.9
2017-Dec-09 11:30N 39°25' E 002°25'1019.1
2017-Dec-09 11:00N 39°29' E 002°36'4 8.1
2017-Dec-09 10:30N 39°33' E 002°38'0 0.0
2017-Dec-09 10:00N 39°33' E 002°38'0 0.0
2017-Dec-09 09:30N 39°33' E 002°38'0 0.0
2017-Dec-09 09:00N 39°33' E 002°38'0 0.0
2017-Dec-09 08:30N 39°33' E 002°38'0 0.0
2017-Dec-09 07:57N 39°33' E 002°38'0 0.0
2017-Dec-09 07:30N 39°33' E 002°38'0 0.0
2017-Dec-09 07:00N 39°33' E 002°38'0 0.0
2017-Dec-09 06:30N 39°33' E 002°38'0 0.0
2017-Dec-09 06:00N 39°33' E 002°38'0 0.0
2017-Dec-09 05:30N 39°33' E 002°38'0 0.0
2017-Dec-09 05:00N 39°33' E 002°38'0 0.6
2017-Dec-09 04:30N 39°33' E 002°38'816.1
2017-Dec-09 04:00N 39°26' E 002°33'1019.6
2017-Dec-09 03:30N 39°25' E 002°20'3 0.1
2017-Dec-07 11:48N 39°25' E 002°17'621.1
2017-Dec-07 11:30N 39°25' E 002°25'1019.4
2017-Dec-07 11:00N 39°29' E 002°36'4 8.4
2017-Dec-07 10:30N 39°33' E 002°38'0 0.0
2017-Dec-07 10:00N 39°33' E 002°38'0 0.0
2017-Dec-07 09:30N 39°33' E 002°38'0 0.0
2017-Dec-07 09:00N 39°33' E 002°38'0 0.0
2017-Dec-07 08:30N 39°33' E 002°38'0 0.0
2017-Dec-07 08:00N 39°33' E 002°38'0 0.0
2017-Dec-07 07:30N 39°33' E 002°38'0 0.0
2017-Dec-07 07:00N 39°33' E 002°38'0 0.0
2017-Dec-07 06:30N 39°33' E 002°38'0 0.0
2017-Dec-07 06:00N 39°33' E 002°38'0 0.0
2017-Dec-07 05:30N 39°33' E 002°38'0 0.0
2017-Dec-07 05:00N 39°33' E 002°38'1 1.3
2017-Dec-07 04:30N 39°33' E 002°39'1019.6
2017-Dec-07 04:00N 39°25' E 002°30'  
2017-Dec-04 10:23N 39°33' E 002°38'0 0.0
2017-Dec-04 09:59N 39°33' E 002°38'0 0.0
2017-Dec-04 09:29N 39°33' E 002°38'0 0.0
2017-Dec-04 08:59N 39°33' E 002°38'0 0.0
2017-Dec-04 08:17N 39°33' E 002°38'0 0.0
2017-Dec-04 07:59N 39°33' E 002°38'0 0.0
2017-Dec-04 07:29N 39°33' E 002°38'0 0.0
2017-Dec-04 06:59N 39°33' E 002°38'0 0.0
2017-Dec-04 06:26N 39°33' E 002°38'0 0.0
2017-Dec-04 05:59N 39°33' E 002°38'0 0.0
2017-Dec-04 05:29N 39°33' E 002°38'0 0.0
2017-Dec-04 05:00N 39°33' E 002°38'1 2.4
2017-Dec-04 04:30N 39°32' E 002°38'1019.5
2017-Dec-04 04:00N 39°25' E 002°29'13 0.3
2017-Dec-02 12:02N 39°25' E 002°12'119.3
2017-Dec-02 11:59N 39°25' E 002°13'919.5
2017-Dec-02 11:30N 39°25' E 002°25'1019.2
2017-Dec-02 11:00N 39°29' E 002°37'4 8.0
2017-Dec-02 10:28N 39°33' E 002°38'0 0.0
2017-Dec-02 09:58N 39°33' E 002°38'0 0.0
2017-Dec-02 09:28N 39°33' E 002°38'0 0.0
2017-Dec-02 08:58N 39°33' E 002°38'0 0.0
2017-Dec-02 08:28N 39°33' E 002°38'0 0.0
2017-Dec-02 07:58N 39°33' E 002°38'0 0.0
2017-Dec-02 07:28N 39°33' E 002°38'0 0.0
2017-Dec-02 06:58N 39°33' E 002°38'0 0.0
2017-Dec-02 06:28N 39°33' E 002°38'0 0.0
2017-Dec-02 05:55N 39°33' E 002°38'0 0.0
2017-Dec-02 05:28N 39°33' E 002°38'0 0.4
2017-Dec-02 05:00N 39°33' E 002°38'713.1
2017-Dec-02 04:30N 39°27' E 002°34'1019.6
2017-Dec-02 04:00N 39°25' E 002°21'  

Dump ship's entire track history